createdAt,value
2018-09-13T00:01:05.818Z,52.70
2018-09-13T00:03:33.490Z,52.70
2018-09-13T00:06:00.663Z,53.00
2018-09-13T00:08:27.815Z,52.70
2018-09-13T00:10:55.035Z,52.70
2018-09-13T00:13:22.390Z,52.70
2018-09-13T00:15:50.360Z,52.70
2018-09-13T00:18:18.639Z,52.70
2018-09-13T00:20:45.787Z,52.70
2018-09-13T00:23:12.934Z,52.80
2018-09-13T00:25:42.952Z,52.70
2018-09-13T00:28:10.028Z,52.80
2018-09-13T00:30:37.150Z,52.80
2018-09-13T00:33:04.367Z,52.80
2018-09-13T00:35:34.329Z,52.80
2018-09-13T00:38:02.388Z,52.80
2018-09-13T00:40:29.745Z,52.90
2018-09-13T00:42:56.699Z,52.90
2018-09-13T00:45:24.046Z,52.90
2018-09-13T00:47:51.690Z,52.80
2018-09-13T00:50:19.163Z,52.80
2018-09-13T00:52:46.737Z,52.90
2018-09-13T00:55:14.189Z,52.90
2018-09-13T00:57:41.745Z,52.90
2018-09-13T01:00:08.890Z,52.90
2018-09-13T01:02:35.937Z,52.90
2018-09-13T01:05:03.194Z,53.00
2018-09-13T01:07:30.544Z,53.00
2018-09-13T01:09:57.799Z,53.00
2018-09-13T01:12:24.947Z,52.90
2018-09-13T01:14:52.639Z,52.90
2018-09-13T01:17:23.140Z,53.00
2018-09-13T01:19:50.592Z,52.90
2018-09-13T01:22:17.953Z,52.90
2018-09-13T01:24:47.842Z,52.90
2018-09-13T01:27:15.113Z,52.90
2018-09-13T01:29:42.270Z,52.90
2018-09-13T01:32:10.240Z,53.00
2018-09-13T01:34:37.691Z,53.00
2018-09-13T01:37:04.948Z,53.00
2018-09-13T01:39:33.012Z,53.00
2018-09-13T01:42:01.288Z,53.00
2018-09-13T01:44:29.575Z,53.00
2018-09-13T01:46:56.612Z,52.90
2018-09-13T01:49:23.874Z,53.00
2018-09-13T01:51:51.011Z,53.00
2018-09-13T01:54:18.235Z,53.00
2018-09-13T01:56:45.721Z,53.00
2018-09-13T01:59:13.806Z,53.10
2018-09-13T02:01:41.145Z,53.00
2018-09-13T02:04:08.769Z,53.70
2018-09-13T02:06:36.615Z,53.00
2018-09-13T02:11:54.793Z,53.00
2018-09-13T02:14:22.000Z,53.10
2018-09-13T02:16:49.457Z,53.00
2018-09-13T02:19:16.709Z,53.00
2018-09-13T02:21:51.190Z,53.00
2018-09-13T02:27:07.116Z,53.00
2018-09-13T02:29:34.339Z,53.10
2018-09-13T02:32:01.541Z,53.00
2018-09-13T02:34:29.004Z,53.00
2018-09-13T02:36:56.226Z,53.10
2018-09-13T02:39:23.651Z,53.00
2018-09-13T02:41:50.729Z,53.00
2018-09-13T02:44:18.293Z,53.00
2018-09-13T02:46:45.674Z,53.00
2018-09-13T02:49:12.816Z,53.00
2018-09-13T02:51:39.693Z,53.00
2018-09-13T02:54:06.987Z,53.00
2018-09-13T02:56:34.041Z,53.10
2018-09-13T02:59:01.217Z,53.10
2018-09-13T03:01:28.160Z,53.00
2018-09-13T03:03:55.282Z,53.10
2018-09-13T03:06:28.572Z,53.10
2018-09-13T03:08:56.065Z,53.10
2018-09-13T03:11:23.112Z,53.10
2018-09-13T03:13:50.774Z,53.70
2018-09-13T03:16:17.924Z,53.20
2018-09-13T03:18:44.935Z,53.10
2018-09-13T03:21:11.877Z,53.10
2018-09-13T03:26:16.457Z,53.10
2018-09-13T03:28:43.811Z,53.10
2018-09-13T03:31:10.680Z,53.10
2018-09-13T03:33:37.871Z,53.10
2018-09-13T03:36:04.913Z,53.10
2018-09-13T03:38:32.003Z,53.10
2018-09-13T03:40:59.005Z,53.10
2018-09-13T03:43:26.258Z,53.00
2018-09-13T03:45:53.175Z,53.10
2018-09-13T03:48:20.297Z,53.00
2018-09-13T03:50:47.573Z,53.00
2018-09-13T03:53:18.385Z,53.00
2018-09-13T03:55:49.119Z,53.00
2018-09-13T03:58:17.600Z,53.00
2018-09-13T04:10:35.861Z,53.10
2018-09-13T04:13:02.854Z,53.20
2018-09-13T04:15:29.884Z,53.20
2018-09-13T04:17:57.052Z,53.20
2018-09-13T04:20:24.101Z,53.20
2018-09-13T04:22:52.509Z,53.20
2018-09-13T04:25:20.187Z,53.30
2018-09-13T04:27:48.978Z,53.60
2018-09-13T04:30:17.148Z,53.50
2018-09-13T04:32:46.214Z,53.30
2018-09-13T04:35:16.987Z,53.80
2018-09-13T04:37:46.279Z,53.80
2018-09-13T04:40:13.493Z,53.80
2018-09-13T04:42:41.398Z,53.70
2018-09-13T04:45:08.506Z,53.90
2018-09-13T04:47:35.555Z,53.80
2018-09-13T04:50:02.808Z,54.00
2018-09-13T04:52:30.672Z,54.30
2018-09-13T04:54:57.926Z,54.20
2018-09-13T04:57:24.872Z,53.70
2018-09-13T04:59:52.574Z,53.80
2018-09-13T05:02:19.821Z,53.90
2018-09-13T05:04:46.936Z,54.00
2018-09-13T05:07:13.984Z,54.00
2018-09-13T05:09:41.025Z,54.20
2018-09-13T05:12:07.979Z,54.20
2018-09-13T05:14:35.126Z,54.00
2018-09-13T05:17:02.103Z,54.00
2018-09-13T05:19:29.797Z,53.90
2018-09-13T05:21:56.987Z,54.70
2018-09-13T05:24:24.243Z,54.10
2018-09-13T05:26:51.284Z,54.10
2018-09-13T05:29:18.337Z,54.00
2018-09-13T05:31:45.447Z,54.10
2018-09-13T05:34:12.532Z,54.40
2018-09-13T05:36:40.295Z,54.20
2018-09-13T05:39:08.162Z,54.10
2018-09-13T05:41:35.212Z,54.00
2018-09-13T05:44:02.634Z,54.10
2018-09-13T05:46:29.819Z,54.10
2018-09-13T05:48:56.891Z,54.10
2018-09-13T05:51:23.914Z,54.40
2018-09-13T05:53:51.166Z,54.20
2018-09-13T05:56:18.239Z,54.30
2018-09-13T05:58:45.567Z,54.30
2018-09-13T06:01:12.829Z,54.20
2018-09-13T06:03:39.870Z,54.20
2018-09-13T06:06:07.240Z,54.30
2018-09-13T06:08:34.539Z,54.80
2018-09-13T06:11:01.643Z,54.40
2018-09-13T06:13:28.897Z,54.30
2018-09-13T06:15:56.212Z,54.20
2018-09-13T06:18:23.484Z,54.10
2018-09-13T06:20:51.558Z,54.30
2018-09-13T06:23:18.606Z,54.20
2018-09-13T06:25:45.653Z,54.10
2018-09-13T06:28:12.900Z,54.10
2018-09-13T06:30:40.057Z,54.20
2018-09-13T06:33:07.106Z,54.40
2018-09-13T06:35:34.356Z,54.40
2018-09-13T06:38:01.611Z,54.40
2018-09-13T06:40:28.656Z,54.50
2018-09-13T06:42:55.816Z,54.40
2018-09-13T06:49:47.869Z,54.20
2018-09-13T06:52:14.917Z,54.40
2018-09-13T06:57:39.527Z,54.40
2018-09-13T07:09:51.794Z,54.40
2018-09-13T07:12:19.150Z,54.40
2018-09-13T07:14:46.504Z,54.50
2018-09-13T07:17:13.687Z,54.40
2018-09-13T07:19:40.786Z,54.30
2018-09-13T07:22:07.954Z,54.20
2018-09-13T07:24:35.396Z,54.20
2018-09-13T07:27:02.667Z,54.20
2018-09-13T07:29:38.717Z,54.10
2018-09-13T07:32:07.301Z,54.30
2018-09-13T07:34:34.989Z,54.30
2018-09-13T07:37:02.432Z,54.30
2018-09-13T07:39:29.874Z,54.30
2018-09-13T07:41:57.537Z,54.40
2018-09-13T07:44:25.758Z,54.30
2018-09-13T07:46:53.474Z,54.20
2018-09-13T07:49:26.255Z,54.30
2018-09-13T07:51:55.469Z,54.30
2018-09-13T07:54:22.821Z,54.30
2018-09-13T07:56:49.971Z,54.30
2018-09-13T07:59:17.206Z,54.40
2018-09-13T08:01:44.168Z,54.40
2018-09-13T08:04:11.371Z,54.40
2018-09-13T08:06:38.476Z,54.40
2018-09-13T08:09:05.455Z,54.40
2018-09-13T08:11:32.545Z,54.40
2018-09-13T08:13:59.799Z,54.30
2018-09-13T08:16:26.866Z,54.40
2018-09-13T08:18:53.999Z,54.30
2018-09-13T08:21:21.193Z,54.40
2018-09-13T08:23:48.522Z,54.40
2018-09-13T08:26:15.546Z,54.40
2018-09-13T08:28:42.697Z,54.40
2018-09-13T08:31:09.743Z,54.40
2018-09-13T08:33:36.790Z,54.40
2018-09-13T08:36:03.858Z,54.40
2018-09-13T08:38:30.986Z,54.40
2018-09-13T08:40:58.135Z,54.50
2018-09-13T08:43:25.394Z,54.50
2018-09-13T08:45:52.432Z,54.40
2018-09-13T08:48:19.431Z,54.40
2018-09-13T08:50:46.555Z,54.40
2018-09-13T08:53:13.431Z,54.50
2018-09-13T08:55:40.547Z,54.50
2018-09-13T08:58:07.771Z,54.50
2018-09-13T09:00:35.422Z,54.70
2018-09-13T09:03:02.274Z,54.70
2018-09-13T09:05:29.424Z,54.60
2018-09-13T09:07:56.468Z,54.70
2018-09-13T09:10:23.416Z,54.80
2018-09-13T09:12:50.566Z,54.80
2018-09-13T09:15:17.714Z,54.70
2018-09-13T09:17:44.658Z,54.60
2018-09-13T09:20:11.549Z,54.60
2018-09-13T09:22:38.486Z,54.60
2018-09-13T09:25:05.585Z,55.40
2018-09-13T09:27:32.604Z,55.20
2018-09-13T09:29:59.422Z,55.10
2018-09-13T09:32:26.430Z,55.00
2018-09-13T09:34:53.575Z,54.80
2018-09-13T09:37:20.630Z,54.80
2018-09-13T09:39:47.643Z,54.70
2018-09-13T09:42:16.360Z,54.70
2018-09-13T09:44:43.524Z,54.70
2018-09-13T09:47:11.007Z,54.60
2018-09-13T09:49:38.013Z,54.70
2018-09-13T09:52:05.142Z,54.70
2018-09-13T09:54:32.869Z,54.70
2018-09-13T09:56:59.942Z,54.60
2018-09-13T09:59:27.251Z,54.70
2018-09-13T10:01:54.833Z,54.70
2018-09-13T10:08:56.672Z,54.70
2018-09-13T10:11:23.975Z,54.90
2018-09-13T10:13:50.878Z,54.90
2018-09-13T10:16:18.214Z,54.80
2018-09-13T10:18:45.219Z,54.70
2018-09-13T10:21:12.314Z,54.70
2018-09-13T10:23:39.547Z,54.80
2018-09-13T10:26:06.669Z,54.80
2018-09-13T10:28:33.580Z,54.70
2018-09-13T10:31:00.651Z,54.80
2018-09-13T10:33:27.872Z,54.70
2018-09-13T10:35:55.027Z,55.10
2018-09-13T10:38:22.318Z,54.90
2018-09-13T10:40:49.339Z,56.90
2018-09-13T10:43:17.651Z,57.00
2018-09-13T10:45:45.201Z,56.50
2018-09-13T10:48:13.069Z,56.70
2018-09-13T10:50:40.157Z,57.10
2018-09-13T10:53:07.166Z,58.60
2018-09-13T10:55:34.446Z,60.00
2018-09-13T10:58:01.635Z,60.50
2018-09-13T11:00:28.717Z,61.40
2018-09-13T11:03:05.841Z,62.20
2018-09-13T11:08:09.456Z,62.30
2018-09-13T11:10:36.912Z,61.40
2018-09-13T11:13:03.923Z,61.70
2018-09-13T11:15:31.028Z,61.40
2018-09-13T11:17:58.225Z,61.10
2018-09-13T11:20:28.413Z,60.90
2018-09-13T11:23:04.025Z,61.50
2018-09-13T11:25:35.885Z,62.30
2018-09-13T11:28:03.116Z,61.40
2018-09-13T11:30:30.286Z,61.10
2018-09-13T11:32:57.518Z,60.70
2018-09-13T11:35:25.918Z,60.40
2018-09-13T11:37:53.041Z,60.20
2018-09-13T11:40:26.492Z,60.00
2018-09-13T11:42:53.688Z,59.70
2018-09-13T11:45:20.965Z,59.50
2018-09-13T11:47:48.503Z,59.20
2018-09-13T11:50:15.650Z,59.30
2018-09-13T11:52:42.869Z,59.20
2018-09-13T11:55:13.400Z,59.10
2018-09-13T11:57:43.988Z,59.00
2018-09-13T12:00:11.818Z,59.10
2018-09-13T12:02:39.700Z,58.90
2018-09-13T12:05:06.947Z,58.90
2018-09-13T12:07:34.100Z,58.70
2018-09-13T12:10:01.349Z,59.40
2018-09-13T12:12:28.397Z,58.50
2018-09-13T12:14:55.668Z,58.40
2018-09-13T12:17:23.281Z,58.30
2018-09-13T12:19:50.263Z,58.00
2018-09-13T12:22:17.426Z,58.10
2018-09-13T12:24:46.621Z,58.10
2018-09-13T12:27:13.645Z,57.90
2018-09-13T12:29:40.803Z,57.80
2018-09-13T12:32:07.851Z,57.90
2018-09-13T12:34:34.898Z,57.60
2018-09-13T12:37:01.773Z,57.60
2018-09-13T12:39:28.689Z,57.70
2018-09-13T12:41:55.777Z,57.60
2018-09-13T12:44:22.885Z,57.30
2018-09-13T12:46:49.794Z,57.10
2018-09-13T12:49:16.979Z,56.30
2018-09-13T12:51:43.925Z,56.70
2018-09-13T12:54:11.177Z,56.50
2018-09-13T12:56:38.462Z,56.20
2018-09-13T12:59:05.375Z,56.20
2018-09-13T13:01:32.381Z,56.10
2018-09-13T13:03:59.780Z,56.60
2018-09-13T13:06:26.910Z,56.80
2018-09-13T13:08:54.056Z,56.60
2018-09-13T13:11:21.089Z,56.60
2018-09-13T13:13:48.177Z,56.70
2018-09-13T13:16:15.907Z,56.60
2018-09-13T13:18:43.040Z,56.70
2018-09-13T13:21:10.033Z,56.70
2018-09-13T13:23:36.985Z,56.70
2018-09-13T13:26:04.131Z,56.70
2018-09-13T13:28:31.178Z,56.80
2018-09-13T13:30:58.300Z,56.70
2018-09-13T13:33:25.443Z,56.70
2018-09-13T13:35:52.526Z,56.70
2018-09-13T13:46:08.631Z,56.60
2018-09-13T13:48:38.484Z,56.60
2018-09-13T13:51:10.441Z,56.60
2018-09-13T13:53:38.310Z,56.60
2018-09-13T13:56:05.356Z,56.60
2018-09-13T13:58:32.562Z,56.60
2018-09-13T14:00:59.584Z,56.60
2018-09-13T14:03:27.046Z,56.60
2018-09-13T14:05:55.191Z,56.60
2018-09-13T14:08:23.149Z,56.70
2018-09-13T14:10:50.273Z,56.60
2018-09-13T14:13:17.256Z,56.60
2018-09-13T14:15:44.150Z,56.50
2018-09-13T14:20:44.399Z,56.50
2018-09-13T14:23:12.379Z,56.50
2018-09-13T14:25:39.318Z,56.60
2018-09-13T14:28:06.204Z,56.30
2018-09-13T14:30:35.295Z,56.50
2018-09-13T14:33:02.223Z,56.50
2018-09-13T14:35:29.382Z,56.40
2018-09-13T14:37:56.438Z,56.30
2018-09-13T14:40:23.655Z,56.30
2018-09-13T14:42:59.586Z,56.30
2018-09-13T14:45:35.687Z,56.40
2018-09-13T14:48:02.856Z,56.20
2018-09-13T14:50:30.109Z,56.30
2018-09-13T14:52:57.317Z,56.30
2018-09-13T14:55:24.818Z,56.20
2018-09-13T14:57:52.173Z,56.10
2018-09-13T15:00:19.290Z,56.10
2018-09-13T15:05:22.940Z,56.10
2018-09-13T15:07:51.101Z,56.10
2018-09-13T15:10:18.420Z,56.10
2018-09-13T15:12:46.397Z,56.10
2018-09-13T15:15:14.592Z,56.00
2018-09-13T15:20:46.085Z,56.00
2018-09-13T15:23:14.667Z,56.10
2018-09-13T15:25:48.372Z,56.00
2018-09-13T15:28:15.389Z,55.40
2018-09-13T15:33:16.140Z,55.40
2018-09-13T15:38:17.709Z,54.10
2018-09-13T15:40:45.915Z,54.30
2018-09-13T15:43:15.080Z,54.20
2018-09-13T15:45:42.162Z,53.90
2018-09-13T15:48:09.317Z,54.00
2018-09-13T15:50:36.322Z,53.40
2018-09-13T15:53:03.445Z,53.40
2018-09-13T15:55:30.401Z,53.30
2018-09-13T15:57:58.182Z,53.50
2018-09-13T16:00:25.395Z,53.60
2018-09-13T16:02:52.829Z,53.70
2018-09-13T16:05:28.204Z,53.70
2018-09-13T16:08:04.604Z,54.10
2018-09-13T16:21:38.318Z,54.30
2018-09-13T16:24:08.131Z,54.20
2018-09-13T16:26:35.486Z,54.20
2018-09-13T16:29:02.639Z,54.20
2018-09-13T16:31:30.910Z,54.50
2018-09-13T16:33:58.309Z,54.70
2018-09-13T16:58:00.173Z,55.80
2018-09-13T17:00:27.424Z,55.70
2018-09-13T17:02:56.766Z,55.80
2018-09-13T17:05:24.080Z,55.90
2018-09-13T17:07:51.648Z,55.80
2018-09-13T17:10:18.624Z,55.80
2018-09-13T17:12:45.620Z,55.90
2018-09-13T17:15:14.040Z,56.00
2018-09-13T17:17:47.610Z,56.00
2018-09-13T17:20:17.943Z,55.90
2018-09-13T17:22:45.188Z,56.00
2018-09-13T17:25:12.850Z,56.00
2018-09-13T17:27:39.898Z,55.70
2018-09-13T17:30:06.861Z,56.70
2018-09-13T17:32:37.475Z,55.90
2018-09-13T17:35:05.753Z,56.00
2018-09-13T17:37:32.732Z,55.90
2018-09-13T17:40:06.403Z,56.00
2018-09-13T17:42:33.348Z,56.00
2018-09-13T17:53:08.813Z,56.20
2018-09-13T17:55:36.011Z,56.20
2018-09-13T17:58:03.383Z,56.20
2018-09-13T18:00:30.712Z,56.20
2018-09-13T18:02:57.645Z,56.10
2018-09-13T18:05:25.139Z,56.10
2018-09-13T18:13:08.167Z,56.10
2018-09-13T18:15:36.135Z,56.10
2018-09-13T18:18:03.286Z,56.10
2018-09-13T18:20:30.400Z,56.10
2018-09-13T18:22:57.585Z,56.10
2018-09-13T18:25:26.073Z,56.10
2018-09-13T18:27:53.116Z,56.00
2018-09-13T18:30:20.305Z,55.90
2018-09-13T18:32:47.316Z,55.80
2018-09-13T18:35:14.773Z,55.80
2018-09-13T18:37:42.745Z,56.00
2018-09-13T18:42:43.297Z,56.00
2018-09-13T18:45:10.955Z,55.90
2018-09-13T18:47:38.100Z,55.90
2018-09-13T18:50:05.148Z,55.90
2018-09-13T18:52:35.983Z,55.90
2018-09-13T18:55:04.215Z,56.10
2018-09-13T18:57:31.411Z,56.00
2018-09-13T19:05:15.859Z,55.90
2018-09-13T19:07:44.088Z,55.90
2018-09-13T19:12:52.374Z,55.70
2018-09-13T19:21:35.266Z,55.50
2018-09-13T19:24:02.701Z,55.50
2018-09-13T19:26:30.077Z,55.50
2018-09-13T19:35:45.500Z,55.70
2018-09-13T19:38:12.651Z,55.70
2018-09-13T19:40:40.174Z,55.70
2018-09-13T19:43:07.256Z,55.70
2018-09-13T19:45:34.507Z,55.60
2018-09-13T19:48:01.655Z,55.50
2018-09-13T19:50:28.883Z,55.60
2018-09-13T19:52:55.900Z,55.40
2018-09-13T19:55:23.413Z,55.40
2018-09-13T19:57:50.562Z,55.50
2018-09-13T20:00:17.717Z,55.50
2018-09-13T20:02:44.760Z,55.40
2018-09-13T20:05:11.908Z,55.40
2018-09-13T20:07:49.405Z,55.40
2018-09-13T20:10:16.541Z,55.40
2018-09-13T20:12:43.700Z,55.40
2018-09-13T20:15:10.951Z,55.40
2018-09-13T20:17:37.956Z,55.40
2018-09-13T20:23:36.904Z,55.40
2018-09-13T20:26:04.996Z,55.40
2018-09-13T20:28:32.725Z,55.40
2018-09-13T20:31:00.012Z,55.40
2018-09-13T20:33:27.570Z,55.40
2018-09-13T20:35:54.569Z,55.50
2018-09-13T20:38:21.751Z,55.40
2018-09-13T20:40:48.809Z,55.40
2018-09-13T20:43:15.802Z,55.40
2018-09-13T20:50:58.309Z,55.40
2018-09-13T20:53:25.661Z,55.40
2018-09-13T20:55:52.709Z,55.40
2018-09-13T21:01:22.131Z,55.40
2018-09-13T21:03:50.143Z,55.30
2018-09-13T21:06:17.257Z,55.30
2018-09-13T21:08:44.409Z,55.30
2018-09-13T21:11:11.352Z,55.30
2018-09-13T21:13:38.496Z,55.30
2018-09-13T21:16:05.517Z,55.30
2018-09-13T21:18:33.206Z,55.20
2018-09-13T21:21:00.227Z,55.20
2018-09-13T21:23:27.675Z,55.20
2018-09-13T21:25:54.621Z,55.30
2018-09-13T21:28:21.679Z,55.20
2018-09-13T21:30:48.676Z,55.20
2018-09-13T21:33:15.665Z,55.20
2018-09-13T21:35:42.608Z,55.30
2018-09-13T21:38:09.551Z,55.10
2018-09-13T21:40:36.480Z,55.20
2018-09-13T21:43:03.549Z,55.80
2018-09-13T21:45:30.572Z,55.10
2018-09-13T21:47:57.579Z,55.10
2018-09-13T21:50:24.589Z,55.20
2018-09-13T21:52:51.529Z,55.10
2018-09-13T21:55:18.678Z,55.10
2018-09-13T21:57:45.631Z,55.10
2018-09-13T22:00:12.875Z,55.20
2018-09-13T22:02:40.024Z,55.10
2018-09-13T22:05:07.010Z,55.10
2018-09-13T22:07:34.177Z,55.10
2018-09-13T22:10:01.106Z,55.10
2018-09-13T22:12:28.212Z,55.10
2018-09-13T22:14:55.817Z,55.10
2018-09-13T22:17:22.817Z,55.10
2018-09-13T22:19:50.787Z,55.10
2018-09-13T22:22:17.982Z,55.10
2018-09-13T22:24:45.133Z,55.10
2018-09-13T22:27:12.079Z,55.10
2018-09-13T22:29:39.047Z,55.10
2018-09-13T22:32:06.127Z,55.10
2018-09-13T22:34:33.430Z,55.00
2018-09-13T22:37:00.374Z,55.10
2018-09-13T22:39:27.420Z,55.00
2018-09-13T22:41:54.468Z,55.10
2018-09-13T22:44:21.414Z,55.00
2018-09-13T22:46:48.359Z,55.00
2018-09-13T22:49:15.352Z,55.10
2018-09-13T22:51:42.296Z,55.00
2018-09-13T22:54:09.398Z,55.00
2018-09-13T22:56:36.417Z,55.00
2018-09-13T22:59:03.542Z,55.00
2018-09-13T23:01:30.591Z,55.00
2018-09-13T23:03:57.698Z,55.00
2018-09-13T23:06:24.888Z,55.00
2018-09-13T23:08:51.948Z,55.00
2018-09-13T23:11:18.959Z,54.90
2018-09-13T23:13:47.523Z,54.90
2018-09-13T23:16:14.781Z,55.00
2018-09-13T23:18:41.739Z,54.80
2018-09-13T23:21:08.666Z,54.90
2018-09-13T23:23:36.019Z,54.90
2018-09-13T23:26:03.027Z,54.90
2018-09-13T23:28:29.948Z,54.80
2018-09-13T23:30:56.957Z,54.80
2018-09-13T23:33:24.490Z,54.80
2018-09-13T23:35:52.181Z,54.80
2018-09-13T23:38:19.263Z,54.80
2018-09-13T23:40:46.405Z,54.80
2018-09-13T23:43:13.596Z,54.80
2018-09-13T23:45:40.781Z,54.90
2018-09-13T23:48:07.828Z,54.80
2018-09-13T23:50:34.874Z,54.80
2018-09-13T23:53:05.509Z,54.80
2018-09-13T23:55:32.510Z,54.70
2018-09-13T23:57:59.440Z,54.80
